Time;durP1;ratioP1;P1;durP2;ratioP2;P2;SDS_P1;SDS_P2;PMS_P1;PMS_P2;Temp;Humidity;BMP_temperature;BMP_pressure;BME280_temperature;BME280_humidity;BME280_pressure;Samples;Min_cycle;Max_cycle;Signal;HPM_P1;HPM_P2
2021/12/13 00:00:19;;;;;;;20.33;10.38;;;9.20;91.90;;;;;;4914930;29;20059;-76
2021/12/13 00:02:50;;;;;;;18.65;9.98;;;9.20;91.90;;;;;;4916391;29;20050;-76
2021/12/13 00:05:44;;;;;;;18.02;9.90;;;9.30;91.80;;;;;;4915307;29;20114;-76
2021/12/13 00:08:14;;;;;;;19.30;10.70;;;9.30;91.90;;;;;;4911439;29;20043;-76
2021/12/13 00:10:53;;;;;;;16.80;9.95;;;9.20;91.90;;;;;;4915002;29;20028;-76
2021/12/13 00:13:23;;;;;;;17.05;9.48;;;9.30;92.10;;;;;;4915161;29;20032;-77
2021/12/13 00:16:00;;;;;;;19.08;10.07;;;9.20;91.80;;;;;;4916317;29;20111;-75
2021/12/13 00:18:30;;;;;;;21.02;10.73;;;9.20;91.80;;;;;;4916396;29;20031;-76
2021/12/13 00:21:07;;;;;;;15.63;9.55;;;9.30;91.90;;;;;;4915060;29;20083;-76
2021/12/13 00:23:42;;;;;;;17.90;10.18;;;9.30;91.90;;;;;;4914885;29;20116;-77
2021/12/13 00:26:08;;;;;;;17.38;10.48;;;9.30;91.90;;;;;;4974689;23;20055;-78
2021/12/13 00:28:39;;;;;;;21.58;10.40;;;9.20;91.90;;;;;;4898746;29;20028;-78
2021/12/13 00:31:34;;;;;;;17.20;10.63;;;9.30;91.90;;;;;;4915424;29;20401;-77
2021/12/13 00:34:20;;;;;;;21.40;10.75;;;9.30;91.90;;;;;;4899121;29;20149;-77
2021/12/13 00:37:06;;;;;;;17.58;10.43;;;9.30;91.90;;;;;;4880534;29;20141;-77
2021/12/13 00:39:45;;;;;;;21.27;10.75;;;9.30;91.90;;;;;;4895182;29;20048;-77
2021/12/13 00:42:12;;;;;;;20.88;10.68;;;9.30;91.90;;;;;;4896183;29;20056;-77
2021/12/13 00:44:44;;;;;;;17.13;10.85;;;9.30;91.90;;;;;;4879784;29;20020;-76
2021/12/13 00:47:18;;;;;;;27.70;11.05;;;9.30;91.90;;;;;;4880432;29;20032;-76
2021/12/13 00:49:47;;;;;;;30.27;10.90;;;9.30;91.80;;;;;;4896855;29;20065;-75
2021/12/13 00:52:18;;;;;;;22.95;11.45;;;9.30;91.90;;;;;;4897099;29;20033;-76
2021/12/13 00:54:45;;;;;;;35.67;11.77;;;9.30;91.90;;;;;;4896751;29;20441;-76
2021/12/13 00:57:29;;;;;;;34.92;12.18;;;9.30;91.90;;;;;;4900295;29;20039;-77
2021/12/13 01:00:25;;;;;;;32.08;12.02;;;9.30;91.90;;;;;;4899216;29;20028;-76
2021/12/13 01:03:14;;;;;;;25.35;11.80;;;9.30;91.90;;;;;;4899029;29;20608;-76
2021/12/13 01:06:10;;;;;;;31.45;12.40;;;9.30;91.80;;;;;;4900586;29;20051;-76
2021/12/13 01:09:13;;;;;;;23.77;12.48;;;9.30;91.90;;;;;;4883843;29;20511;-76
2021/12/13 01:11:54;;;;;;;23.90;11.45;;;9.30;91.90;;;;;;4900556;29;20100;-76
2021/12/13 01:14:28;;;;;;;22.67;11.68;;;9.30;91.90;;;;;;4883749;29;20029;-76
2021/12/13 01:17:04;;;;;;;21.25;11.88;;;9.30;91.90;;;;;;4900445;29;20027;-76
2021/12/13 01:19:56;;;;;;;20.58;12.50;;;9.30;92.00;;;;;;4883371;29;20029;-76
2021/12/13 01:23:02;;;;;;;27.92;12.57;;;9.30;91.90;;;;;;4883468;29;20033;-76
2021/12/13 01:25:47;;;;;;;18.02;12.43;;;9.30;92.00;;;;;;4900099;29;20035;-76
2021/12/13 01:28:37;;;;;;;20.08;12.57;;;9.30;91.90;;;;;;4900175;29;20024;-76
2021/12/13 01:31:08;;;;;;;22.30;13.20;;;9.30;91.90;;;;;;4883352;29;20021;-76
2021/12/13 01:33:34;;;;;;;18.80;12.17;;;9.30;91.90;;;;;;4900311;29;20029;-77
2021/12/13 01:36:05;;;;;;;20.27;13.45;;;9.30;91.90;;;;;;4883076;29;20265;-78
2021/12/13 01:38:41;;;;;;;19.52;14.23;;;9.30;92.20;;;;;;4883575;29;20033;-77
2021/12/13 01:41:11;;;;;;;21.55;13.40;;;9.30;92.00;;;;;;4883185;29;20033;-78
2021/12/13 01:43:45;;;;;;;20.92;13.93;;;9.30;91.90;;;;;;4883417;29;20056;-77
2021/12/13 01:46:10;;;;;;;22.10;13.88;;;9.30;92.00;;;;;;4899965;29;20028;-77
2021/12/13 01:48:40;;;;;;;20.42;14.32;;;9.30;91.90;;;;;;4883060;29;20029;-77
2021/12/13 01:51:10;;;;;;;19.70;12.93;;;9.30;91.90;;;;;;4882820;29;20047;-76
2021/12/13 01:53:45;;;;;;;21.17;13.65;;;9.30;92.00;;;;;;4899287;29;20027;-77
2021/12/13 01:56:41;;;;;;;19.80;13.35;;;9.30;91.90;;;;;;4898716;29;20056;-77
2021/12/13 02:02:33;;;;;;;20.30;13.15;;;9.30;91.90;;;;;;4900055;29;20032;-77
2021/12/13 02:05:25;;;;;;;21.85;14.30;;;9.30;91.90;;;;;;4858295;29;20066;-77
2021/12/13 02:08:12;;;;;;;21.08;13.40;;;9.30;91.90;;;;;;4899752;29;20477;-77
2021/12/13 02:10:44;;;;;;;18.30;12.73;;;9.30;91.90;;;;;;4882555;29;20086;-76
2021/12/13 02:13:21;;;;;;;17.88;13.18;;;9.30;91.90;;;;;;4899450;29;20024;-77
2021/12/13 02:18:37;;;;;;;19.15;13.48;;;9.30;91.90;;;;;;4899586;29;20075;-77
2021/12/13 02:21:24;;;;;;;20.20;13.23;;;9.30;91.90;;;;;;4899077;29;20037;-76
2021/12/13 02:23:53;;;;;;;18.65;13.25;;;9.30;91.90;;;;;;4899291;29;20060;-77
2021/12/13 02:26:20;;;;;;;18.90;12.48;;;9.30;91.90;;;;;;4882367;29;20056;-77
2021/12/13 02:28:53;;;;;;;21.08;13.95;;;9.30;91.90;;;;;;4882370;29;20029;-77
2021/12/13 02:31:23;;;;;;;22.20;13.70;;;9.30;91.90;;;;;;4898994;29;20084;-76
2021/12/13 02:33:54;;;;;;;19.83;13.02;;;9.30;91.90;;;;;;4899112;29;20080;-76
2021/12/13 02:36:27;;;;;;;19.30;12.68;;;9.30;91.90;;;;;;4882165;29;20522;-77
2021/12/13 02:38:55;;;;;;;18.65;12.43;;;9.30;91.90;;;;;;4898811;29;20028;-77
2021/12/13 02:41:25;;;;;;;19.95;12.82;;;9.30;91.90;;;;;;4882265;29;20485;-76
2021/12/13 02:43:55;;;;;;;18.83;13.10;;;9.30;91.90;;;;;;4898962;29;20024;-77
2021/12/13 02:46:21;;;;;;;21.52;13.27;;;9.30;91.80;;;;;;4898751;29;20025;-76
2021/12/13 02:48:54;;;;;;;20.20;13.20;;;9.30;91.80;;;;;;4898724;29;20064;-76
2021/12/13 02:51:31;;;;;;;21.27;13.55;;;9.30;91.80;;;;;;4898764;29;20500;-77
2021/12/13 02:54:02;;;;;;;21.13;13.05;;;9.30;91.80;;;;;;4881458;29;20029;-76
2021/12/13 02:56:35;;;;;;;21.52;13.30;;;9.30;91.80;;;;;;4898707;29;20116;-77
2021/12/13 02:59:05;;;;;;;20.67;13.40;;;9.30;91.80;;;;;;4881419;29;20032;-76
2021/12/13 03:01:54;;;;;;;19.10;13.20;;;9.30;91.80;;;;;;4881735;29;20028;-77
2021/12/13 03:04:23;;;;;;;20.27;13.65;;;9.30;91.80;;;;;;4859382;29;20037;-76
2021/12/13 03:06:55;;;;;;;21.95;13.55;;;9.30;91.80;;;;;;4898457;29;20138;-76
2021/12/13 03:09:24;;;;;;;20.85;13.63;;;9.40;91.80;;;;;;4898283;29;20150;-76
2021/12/13 03:11:52;;;;;;;19.77;13.32;;;9.30;91.80;;;;;;4898291;29;20036;-76
2021/12/13 03:14:24;;;;;;;21.40;13.45;;;9.30;91.90;;;;;;4898252;29;20029;-76
2021/12/13 03:16:58;;;;;;;20.02;13.90;;;9.40;91.90;;;;;;4881511;29;20028;-77
2021/12/13 03:19:55;;;;;;;18.52;13.15;;;9.40;91.90;;;;;;4896433;29;20574;-76
2021/12/13 03:23:06;;;;;;;20.58;13.68;;;9.30;91.80;;;;;;4900502;29;20025;-76
2021/12/13 03:25:53;;;;;;;20.13;13.70;;;9.40;91.80;;;;;;4881152;29;20041;-77
2021/12/13 03:28:34;;;;;;;19.05;12.95;;;9.30;91.80;;;;;;4896849;29;20028;-79
2021/12/13 03:31:06;;;;;;;20.83;14.13;;;9.30;91.80;;;;;;4881046;29;20024;-76
2021/12/13 03:33:54;;;;;;;21.30;13.95;;;9.40;91.80;;;;;;4896657;29;20040;-76
2021/12/13 03:36:32;;;;;;;19.52;13.57;;;9.40;91.90;;;;;;4881102;29;20076;-76
2021/12/13 03:38:58;;;;;;;21.02;14.40;;;9.40;91.80;;;;;;4880849;29;20123;-76
2021/12/13 03:41:25;;;;;;;21.15;14.10;;;9.30;91.80;;;;;;4897881;29;20100;-78
2021/12/13 03:44:02;;;;;;;22.90;14.50;;;9.30;91.80;;;;;;4897846;29;20029;-78
2021/12/13 03:46:33;;;;;;;19.08;13.30;;;9.30;91.80;;;;;;4897749;29;20021;-77
2021/12/13 03:49:01;;;;;;;21.73;14.68;;;9.40;91.80;;;;;;4880852;29;20072;-77
2021/12/13 03:51:32;;;;;;;21.23;14.25;;;9.40;91.80;;;;;;4897713;29;20039;-77
2021/12/13 03:54:00;;;;;;;21.20;13.70;;;9.40;91.90;;;;;;4897207;29;20029;-77
2021/12/13 03:56:30;;;;;;;20.30;14.10;;;9.40;91.80;;;;;;4880825;29;20032;-77
2021/12/13 03:59:02;;;;;;;19.50;13.80;;;9.40;91.90;;;;;;4880390;29;20408;-76
2021/12/13 04:02:05;;;;;;;20.35;13.40;;;9.40;91.80;;;;;;4880858;29;20020;-77
2021/12/13 04:04:45;;;;;;;19.50;13.65;;;9.40;91.80;;;;;;4858843;29;20044;-77
2021/12/13 04:07:34;;;;;;;20.30;13.82;;;9.30;91.80;;;;;;4880850;29;20027;-77
2021/12/13 04:10:06;;;;;;;21.00;14.25;;;9.40;91.80;;;;;;4880557;29;20070;-77
2021/12/13 04:12:44;;;;;;;22.33;13.93;;;9.40;91.80;;;;;;4897471;29;20028;-77
2021/12/13 04:15:23;;;;;;;19.00;13.38;;;9.30;91.90;;;;;;4880832;29;20412;-77
2021/12/13 04:18:02;;;;;;;21.15;14.85;;;9.40;91.80;;;;;;4880706;29;20044;-76
2021/12/13 04:20:34;;;;;;;20.60;13.20;;;9.40;91.90;;;;;;4897134;29;20388;-77
2021/12/13 04:23:09;;;;;;;19.40;12.55;;;9.40;91.80;;;;;;4897246;29;20028;-76
2021/12/13 04:25:39;;;;;;;21.33;13.57;;;9.40;91.90;;;;;;4880317;29;20036;-77
2021/12/13 04:28:18;;;;;;;20.33;13.68;;;9.40;91.80;;;;;;4880443;29;20029;-78
2021/12/13 04:31:06;;;;;;;19.17;12.88;;;9.40;91.80;;;;;;4881077;29;20024;-77
2021/12/13 04:33:33;;;;;;;19.52;13.13;;;9.40;91.80;;;;;;4884630;29;20040;-77
2021/12/13 04:36:16;;;;;;;19.95;14.02;;;9.40;91.90;;;;;;4901075;29;20035;-77
2021/12/13 04:38:51;;;;;;;19.20;13.35;;;9.40;91.80;;;;;;4884163;29;20029;-77
2021/12/13 04:41:29;;;;;;;18.13;12.52;;;9.40;91.90;;;;;;4884221;29;20047;-77
2021/12/13 04:44:03;;;;;;;19.92;13.45;;;9.40;91.80;;;;;;4901353;29;20024;-77
2021/12/13 04:46:31;;;;;;;17.60;12.70;;;9.40;91.80;;;;;;4884113;29;20031;-77
2021/12/13 04:49:00;;;;;;;18.63;13.13;;;9.40;91.80;;;;;;4900666;29;20027;-75
2021/12/13 04:51:34;;;;;;;18.70;13.32;;;9.40;91.70;;;;;;4884025;29;20111;-76
2021/12/13 04:54:00;;;;;;;17.65;12.07;;;9.40;91.80;;;;;;4883789;29;20029;-78
2021/12/13 04:56:28;;;;;;;21.20;14.10;;;9.40;91.80;;;;;;4883929;29;20028;-78
2021/12/13 04:58:57;;;;;;;19.80;13.23;;;9.40;91.90;;;;;;4883775;29;20493;-76
2021/12/13 05:01:25;;;;;;;17.55;13.10;;;9.40;91.90;;;;;;4883752;29;20063;-78
2021/12/13 05:03:54;;;;;;;17.00;12.00;;;9.40;91.80;;;;;;4883845;29;20080;-77
2021/12/13 05:06:24;;;;;;;17.73;12.68;;;9.40;91.80;;;;;;4883793;29;20453;-77
2021/12/13 05:08:54;;;;;;;17.85;12.32;;;9.40;91.90;;;;;;4884064;29;20673;-76
2021/12/13 05:11:20;;;;;;;17.67;11.73;;;9.40;91.80;;;;;;4900498;29;20029;-76
2021/12/13 05:13:52;;;;;;;15.70;11.43;;;9.40;91.90;;;;;;4899993;29;20052;-75
2021/12/13 05:16:28;;;;;;;17.58;12.25;;;9.40;91.80;;;;;;4896426;29;20081;-75
2021/12/13 05:18:56;;;;;;;16.35;12.07;;;9.40;91.80;;;;;;4871887;29;20030;-75
2021/12/13 05:21:31;;;;;;;16.27;11.40;;;9.40;91.80;;;;;;4886100;29;20024;-76
2021/12/13 05:24:00;;;;;;;16.55;11.95;;;9.40;91.80;;;;;;4890489;29;20031;-77
2021/12/13 05:26:51;;;;;;;17.52;12.07;;;9.40;91.80;;;;;;4885660;29;20131;-77
2021/12/13 05:29:29;;;;;;;15.95;11.77;;;9.40;91.80;;;;;;4891292;29;20139;-76
2021/12/13 05:32:04;;;;;;;17.48;11.60;;;9.40;91.90;;;;;;4877348;29;20068;-76
2021/12/13 05:34:35;;;;;;;16.75;11.93;;;9.40;91.80;;;;;;4881825;29;20066;-74
2021/12/13 05:37:03;;;;;;;16.95;11.77;;;9.40;91.80;;;;;;4884997;29;20036;-77
2021/12/13 05:39:29;;;;;;;16.80;11.57;;;9.40;91.80;;;;;;4886542;29;20858;-79
2021/12/13 05:42:02;;;;;;;16.48;11.45;;;9.40;91.80;;;;;;4878417;29;20496;-78
2021/12/13 05:44:33;;;;;;;17.63;11.80;;;9.40;91.70;;;;;;4895885;29;20044;-77
2021/12/13 05:47:01;;;;;;;15.38;11.00;;;9.40;91.80;;;;;;4878943;29;20396;-78
2021/12/13 05:49:33;;;;;;;17.05;11.55;;;9.40;91.80;;;;;;4879111;29;20033;-77
2021/12/13 05:52:19;;;;;;;15.60;11.13;;;9.40;91.80;;;;;;4879450;29;20028;-78
2021/12/13 05:54:58;;;;;;;15.75;11.32;;;9.40;91.70;;;;;;4895912;29;20544;-76
2021/12/13 05:57:31;;;;;;;17.27;11.63;;;9.40;91.60;;;;;;4879363;29;20041;-76
2021/12/13 06:00:06;;;;;;;16.38;11.75;;;9.40;91.70;;;;;;4878255;29;20033;-75
2021/12/13 06:03:00;;;;;;;15.15;11.27;;;9.40;91.70;;;;;;4878966;29;20029;-78
2021/12/13 06:05:34;;;;;;;16.85;11.52;;;9.40;91.60;;;;;;4895681;29;20038;-75
2021/12/13 06:08:06;;;;;;;15.30;11.30;;;9.40;92.10;;;;;;4878812;29;20039;-78
2021/12/13 06:10:46;;;;;;;17.35;12.18;;;9.50;92.10;;;;;;4895417;29;20029;-77
2021/12/13 06:13:43;;;;;;;16.85;12.10;;;9.50;92.10;;;;;;4878523;29;20074;-78
2021/12/13 06:16:24;;;;;;;16.52;11.68;;;9.50;92.30;;;;;;4894734;29;20092;-76
2021/12/13 06:18:58;;;;;;;16.42;11.70;;;9.50;92.30;;;;;;4896933;29;20028;-80
2021/12/13 06:21:43;;;;;;;16.65;10.77;;;9.50;92.30;;;;;;4880524;29;20043;-79
2021/12/13 06:24:10;;;;;;;15.95;11.15;;;9.60;92.00;;;;;;4881937;29;20124;-77
2021/12/13 06:26:36;;;;;;;17.70;12.35;;;9.60;91.80;;;;;;4875742;29;20071;-76
2021/12/13 06:29:06;;;;;;;15.70;11.70;;;9.60;91.90;;;;;;4899264;29;20052;-76
2021/12/13 06:31:43;;;;;;;18.38;11.85;;;9.60;92.00;;;;;;4881968;29;20029;-78
2021/12/13 06:34:14;;;;;;;17.45;12.43;;;9.60;91.90;;;;;;4859507;29;20025;-75
2021/12/13 06:36:52;;;;;;;16.17;12.27;;;9.60;92.00;;;;;;4859629;29;20040;-77
2021/12/13 06:39:29;;;;;;;16.77;12.30;;;9.60;92.10;;;;;;4859882;29;20060;-77
2021/12/13 06:42:01;;;;;;;18.13;12.93;;;9.60;92.00;;;;;;4914740;23;20041;-88
2021/12/13 06:44:42;;;;;;;;;;;9.60;92.20;;;;;;4883619;29;20040;-87
2021/12/13 06:47:25;;;;;;;15.25;11.30;;;9.60;92.00;;;;;;4900416;29;19907;-86
2021/12/13 12:11:44;;;;;;;25.30;18.45;;;9.50;92.30;;;;;;5546348;23;20051;-83
2021/12/13 12:41:40;;;;;;;24.00;17.63;;;9.60;92.30;;;;;;4931625;23;20054;-77
2021/12/13 12:44:06;;;;;;;23.95;17.13;;;9.60;92.40;;;;;;4936228;29;20095;-78
2021/12/13 12:46:39;;;;;;;26.00;17.50;;;9.60;92.40;;;;;;4936231;29;20070;-76
2021/12/13 12:49:14;;;;;;;24.25;15.95;;;9.60;92.90;;;;;;4934526;29;20439;-76
2021/12/13 12:51:40;;;;;;;21.80;16.35;;;9.60;92.50;;;;;;4916771;29;20050;-76
2021/12/13 12:54:20;;;;;;;24.40;16.67;;;9.60;92.50;;;;;;4921442;29;20052;-76
2021/12/13 12:56:53;;;;;;;22.35;16.73;;;9.60;92.40;;;;;;4921342;29;20136;-77
2021/12/13 12:59:22;;;;;;;22.95;16.98;;;9.60;92.20;;;;;;4921064;29;20031;-77
2021/12/13 13:02:04;;;;;;;23.08;16.70;;;9.60;92.30;;;;;;4938271;29;20027;-77
2021/12/13 13:04:32;;;;;;;22.90;16.35;;;9.60;92.20;;;;;;4920099;29;20031;-77
2021/12/13 13:07:09;;;;;;;24.52;16.88;;;9.60;92.30;;;;;;4921061;29;20083;-76
2021/12/13 13:09:53;;;;;;;24.08;16.33;;;9.60;92.20;;;;;;4920636;29;20031;-78
2021/12/13 13:12:27;;;;;;;22.90;15.90;;;9.60;92.30;;;;;;4937950;29;20035;-76
2021/12/13 13:15:00;;;;;;;20.90;15.80;;;9.60;92.30;;;;;;4921019;29;20028;-76
2021/12/13 13:17:29;;;;;;;21.55;15.02;;;9.60;92.30;;;;;;4937863;29;20079;-77
2021/12/13 13:20:04;;;;;;;21.25;15.57;;;9.60;92.30;;;;;;4937503;29;20505;-78
2021/12/13 13:22:34;;;;;;;23.27;16.25;;;9.60;92.30;;;;;;4920629;29;20035;-77
2021/12/13 13:25:08;;;;;;;19.95;14.93;;;9.60;92.30;;;;;;4938212;29;20098;-77
2021/12/13 13:27:34;;;;;;;23.85;15.00;;;9.60;92.30;;;;;;4937621;29;20032;-76
2021/12/13 13:30:01;;;;;;;21.98;14.82;;;9.60;92.40;;;;;;4920406;29;20479;-77
2021/12/13 13:32:27;;;;;;;19.92;14.70;;;9.60;92.30;;;;;;4920639;29;20411;-77
2021/12/13 13:34:56;;;;;;;20.52;14.40;;;9.60;92.30;;;;;;4920464;29;20031;-78
2021/12/13 13:37:28;;;;;;;19.77;14.95;;;9.60;92.30;;;;;;4920486;29;20031;-77
2021/12/13 13:39:56;;;;;;;20.05;14.73;;;9.60;92.40;;;;;;4920200;29;20091;-76
2021/12/13 13:42:27;;;;;;;21.63;14.45;;;9.60;92.20;;;;;;4937408;29;20415;-80
2021/12/13 13:45:08;;;;;;;19.52;14.73;;;9.60;92.30;;;;;;4920553;29;20023;-78
2021/12/13 13:47:38;;;;;;;19.50;13.73;;;9.60;92.30;;;;;;4937326;29;20055;-78
2021/12/13 13:50:31;;;;;;;19.08;14.25;;;9.60;92.30;;;;;;4920081;29;20530;-78
2021/12/13 13:53:18;;;;;;;19.10;13.98;;;9.60;92.30;;;;;;4937032;29;20064;-78
2021/12/13 13:55:50;;;;;;;17.58;13.57;;;9.60;92.30;;;;;;4920103;29;20059;-77
2021/12/13 13:58:21;;;;;;;19.08;13.10;;;9.60;92.30;;;;;;4920367;29;20447;-77
2021/12/13 14:01:13;;;;;;;18.70;13.75;;;9.60;92.40;;;;;;4936806;29;20066;-79
2021/12/13 14:03:50;;;;;;;19.42;13.20;;;9.60;92.20;;;;;;4936827;29;20043;-77
2021/12/13 14:06:21;;;;;;;19.83;13.77;;;9.60;92.20;;;;;;4919900;29;20075;-76
2021/12/13 14:09:16;;;;;;;16.95;12.82;;;9.60;92.30;;;;;;4919915;29;20019;-76
2021/12/13 14:12:04;;;;;;;18.35;13.30;;;9.60;92.20;;;;;;4917927;29;20043;-77
2021/12/13 14:14:51;;;;;;;16.77;12.77;;;9.60;92.30;;;;;;4919659;29;20031;-78
2021/12/13 14:17:59;;;;;;;17.33;12.63;;;9.60;92.20;;;;;;4936791;29;20036;-78
2021/12/13 14:20:35;;;;;;;16.73;12.18;;;9.60;92.20;;;;;;4919532;29;20043;-77
2021/12/13 14:23:29;;;;;;;15.90;12.02;;;9.60;92.20;;;;;;4919562;29;20030;-78
2021/12/13 14:26:07;;;;;;;16.40;11.68;;;9.60;92.20;;;;;;4919767;29;20027;-78
2021/12/13 14:28:43;;;;;;;16.48;11.68;;;9.60;92.30;;;;;;4936719;29;20460;-78
2021/12/13 14:31:15;;;;;;;15.80;11.30;;;9.60;92.30;;;;;;4936184;29;20047;-79
2021/12/13 14:33:55;;;;;;;16.65;12.18;;;9.60;92.30;;;;;;4919596;29;20491;-77
2021/12/13 14:36:26;;;;;;;13.98;10.75;;;9.60;92.20;;;;;;4936609;29;20031;-77
2021/12/13 14:39:14;;;;;;;15.43;11.48;;;9.60;92.30;;;;;;4919548;29;20042;-78
2021/12/13 14:42:00;;;;;;;15.00;11.23;;;9.60;92.30;;;;;;4935595;29;20078;-77
2021/12/13 14:44:31;;;;;;;15.18;10.73;;;9.60;92.30;;;;;;4919253;29;20035;-76
2021/12/13 14:47:02;;;;;;;15.77;11.23;;;9.60;92.20;;;;;;4919264;29;20051;-76
2021/12/13 14:49:39;;;;;;;16.38;11.70;;;9.60;92.30;;;;;;4918990;29;20035;-77
2021/12/13 14:52:09;;;;;;;15.07;10.95;;;9.60;92.20;;;;;;4918693;29;20480;-78
2021/12/13 14:54:37;;;;;;;14.20;10.90;;;9.60;92.30;;;;;;4919060;29;20107;-78
2021/12/13 14:57:06;;;;;;;13.55;10.43;;;9.60;92.30;;;;;;4919025;29;20028;-78
2021/12/13 14:59:36;;;;;;;14.45;10.57;;;9.60;92.60;;;;;;4918837;29;20028;-78
2021/12/13 15:02:08;;;;;;;14.05;10.68;;;9.60;92.90;;;;;;4918838;29;20443;-79
2021/12/13 15:04:34;;;;;;;13.93;10.63;;;9.60;92.90;;;;;;4936078;29;20052;-78
2021/12/13 15:07:04;;;;;;;14.40;10.50;;;9.70;92.80;;;;;;4936003;29;20024;-78
2021/12/13 15:09:51;;;;;;;15.30;10.45;;;9.70;92.80;;;;;;4918695;29;20031;-77
2021/12/13 15:12:29;;;;;;;13.15;9.80;;;9.70;92.80;;;;;;4935850;29;20399;-77
2021/12/13 15:15:03;;;;;;;13.68;9.93;;;9.70;92.80;;;;;;4918231;29;20059;-77
2021/12/13 15:17:38;;;;;;;12.98;9.55;;;9.70;92.80;;;;;;4918791;29;20039;-77
2021/12/13 15:20:14;;;;;;;12.70;9.27;;;9.70;92.80;;;;;;4935376;29;20119;-78
2021/12/13 15:22:43;;;;;;;14.95;9.82;;;9.70;92.80;;;;;;4935508;29;20050;-78
2021/12/13 15:25:13;;;;;;;11.80;8.95;;;9.70;92.80;;;;;;4918650;29;20049;-77
2021/12/13 15:27:42;;;;;;;12.88;9.32;;;9.70;92.80;;;;;;4918583;29;20027;-78
2021/12/13 15:30:14;;;;;;;23.92;9.70;;;9.70;92.80;;;;;;4935667;29;20055;-77
2021/12/13 15:32:43;;;;;;;17.05;9.70;;;9.70;93.10;;;;;;4920377;29;20027;-77
2021/12/13 15:35:10;;;;;;;23.33;10.18;;;9.70;92.70;;;;;;4935103;29;20020;-77
2021/12/13 15:37:42;;;;;;;27.67;10.18;;;9.80;92.80;;;;;;4917956;29;20043;-77
2021/12/13 15:40:15;;;;;;;18.88;9.65;;;9.80;92.80;;;;;;4917355;29;20032;-77
2021/12/13 15:42:48;;;;;;;20.17;9.15;;;9.80;92.90;;;;;;4917419;29;20495;-78
2021/12/13 15:45:23;;;;;;;15.77;9.15;;;9.80;92.90;;;;;;4917447;29;20028;-77
2021/12/13 15:51:14;;;;;;;15.57;8.48;;;9.70;92.90;;;;;;4932911;29;20039;-77
2021/12/13 15:53:44;;;;;;;15.02;8.77;;;9.70;92.90;;;;;;4934028;29;20031;-77
2021/12/13 15:56:13;;;;;;;14.95;8.60;;;9.70;93.00;;;;;;4917057;29;20028;-77
2021/12/13 15:58:42;;;;;;;13.32;8.25;;;9.70;92.90;;;;;;4918032;29;20122;-77
2021/12/13 16:01:29;;;;;;;13.40;8.63;;;9.70;92.90;;;;;;4917706;29;20032;-77
2021/12/13 16:04:02;;;;;;;15.55;8.27;;;9.80;92.90;;;;;;4917974;29;20024;-77
2021/12/13 16:06:33;;;;;;;12.85;8.48;;;9.70;92.90;;;;;;4917902;29;20023;-77
2021/12/13 16:09:19;;;;;;;14.57;8.70;;;9.70;92.90;;;;;;4917773;29;20031;-77
2021/12/13 16:11:55;;;;;;;13.35;8.48;;;9.70;93.10;;;;;;4917772;29;20377;-78
2021/12/13 16:14:25;;;;;;;14.38;8.50;;;9.70;93.00;;;;;;4934925;29;20124;-77
2021/12/13 16:17:08;;;;;;;13.50;7.90;;;9.80;93.20;;;;;;4918005;29;20594;-78
2021/12/13 16:19:34;;;;;;;15.68;8.38;;;9.80;92.80;;;;;;4917401;29;20032;-77
2021/12/13 16:22:00;;;;;;;19.27;8.48;;;9.80;93.00;;;;;;4917883;29;20030;-78
2021/12/13 16:24:26;;;;;;;15.48;8.60;;;9.80;93.10;;;;;;4917700;29;20027;-77
2021/12/13 16:26:53;;;;;;;11.68;7.93;;;9.80;93.00;;;;;;4917890;29;20031;-77
2021/12/13 16:29:19;;;;;;;12.18;8.18;;;9.80;93.00;;;;;;4917528;29;20031;-77
2021/12/13 16:31:45;;;;;;;13.90;8.30;;;9.80;93.00;;;;;;4917861;29;20036;-77
2021/12/13 16:34:13;;;;;;;13.82;8.73;;;9.80;93.00;;;;;;4935093;29;20023;-77
2021/12/13 16:36:41;;;;;;;12.48;7.43;;;9.80;93.00;;;;;;4917713;29;20024;-77
2021/12/13 16:39:33;;;;;;;14.55;7.93;;;9.80;93.20;;;;;;4917523;29;20046;-77
2021/12/13 16:42:10;;;;;;;14.13;8.52;;;9.80;93.20;;;;;;4914837;29;20040;-77
2021/12/13 16:44:40;;;;;;;11.52;7.38;;;9.80;93.10;;;;;;4917655;29;20110;-78
2021/12/13 16:47:11;;;;;;;13.40;7.63;;;9.80;93.10;;;;;;4917765;29;20052;-78
2021/12/13 16:49:39;;;;;;;12.20;7.72;;;9.80;93.10;;;;;;4934462;29;20046;-77
2021/12/13 16:52:09;;;;;;;13.05;8.00;;;9.80;93.20;;;;;;4933989;29;20035;-78
2021/12/13 16:54:37;;;;;;;11.88;8.13;;;9.80;93.30;;;;;;4917607;29;20035;-77
2021/12/13 16:57:24;;;;;;;11.80;7.30;;;9.70;93.20;;;;;;4934686;29;20031;-77
2021/12/13 17:00:03;;;;;;;14.00;8.18;;;9.70;93.30;;;;;;4917326;29;20518;-78
2021/12/13 17:02:29;;;;;;;12.43;7.57;;;9.70;93.30;;;;;;4934662;29;20028;-77
2021/12/13 17:05:00;;;;;;;10.85;7.90;;;9.70;93.40;;;;;;4935102;29;20427;-79
2021/12/13 17:07:29;;;;;;;13.07;8.02;;;9.70;93.50;;;;;;4917879;29;20476;-79
2021/12/13 17:10:00;;;;;;;11.82;8.20;;;9.60;93.40;;;;;;4917447;29;20031;-78
2021/12/13 17:12:30;;;;;;;12.40;7.40;;;9.60;93.40;;;;;;4934779;29;20131;-80
2021/12/13 17:15:02;;;;;;;12.05;7.45;;;9.60;93.40;;;;;;4935573;29;20260;-78
2021/12/13 17:17:34;;;;;;;11.80;8.05;;;9.60;93.40;;;;;;4935040;29;20020;-79
2021/12/13 17:20:01;;;;;;;10.25;7.00;;;9.60;93.50;;;;;;4934664;29;20554;-79
2021/12/13 17:22:30;;;;;;;11.32;7.90;;;9.60;93.40;;;;;;4934521;29;20067;-77
2021/12/13 17:25:04;;;;;;;12.05;7.65;;;9.60;93.40;;;;;;4934914;29;20464;-77
2021/12/13 17:27:34;;;;;;;11.70;7.55;;;9.60;93.50;;;;;;4934491;29;20448;-77
2021/12/13 17:30:16;;;;;;;11.93;7.75;;;9.60;93.50;;;;;;4915997;29;20110;-77
2021/12/13 17:32:46;;;;;;;10.73;7.25;;;9.60;93.60;;;;;;4917598;29;20036;-75
2021/12/13 17:35:25;;;;;;;11.35;7.80;;;9.60;93.50;;;;;;4934764;29;20035;-76
2021/12/13 17:37:51;;;;;;;10.27;7.13;;;9.60;93.50;;;;;;4918713;29;20711;-77
2021/12/13 17:40:19;;;;;;;11.40;7.63;;;9.60;93.50;;;;;;4920950;29;20114;-77
2021/12/13 17:43:05;;;;;;;12.65;7.78;;;9.60;93.50;;;;;;4938465;29;20036;-78
2021/12/13 17:46:02;;;;;;;12.07;7.53;;;9.60;93.40;;;;;;4921125;29;20114;-76
2021/12/13 17:48:35;;;;;;;10.27;7.07;;;9.60;93.50;;;;;;4918108;29;20051;-78
2021/12/13 17:51:04;;;;;;;10.82;7.43;;;9.60;93.40;;;;;;4926431;29;20063;-76
2021/12/13 17:53:29;;;;;;;10.93;7.38;;;9.60;93.40;;;;;;4938611;29;20075;-78
2021/12/13 17:56:04;;;;;;;10.90;7.30;;;9.60;93.40;;;;;;4920545;29;20035;-77
2021/12/13 17:58:37;;;;;;;10.48;7.30;;;9.60;93.60;;;;;;4920592;29;20031;-77
2021/12/13 18:01:10;;;;;;;10.07;7.32;;;9.60;93.40;;;;;;4937190;29;20571;-77
2021/12/13 18:03:44;;;;;;;11.25;7.22;;;9.60;93.40;;;;;;4937605;29;20028;-75
2021/12/13 18:06:13;;;;;;;11.20;7.30;;;9.60;93.30;;;;;;4920666;29;20028;-77
2021/12/13 18:08:40;;;;;;;10.55;7.68;;;9.60;93.30;;;;;;4920607;29;20123;-77
2021/12/13 18:11:05;;;;;;;11.15;7.70;;;9.60;93.40;;;;;;4920336;29;20046;-78
2021/12/13 18:13:40;;;;;;;9.70;7.20;;;9.60;93.40;;;;;;4921322;29;20032;-76
2021/12/13 18:16:06;;;;;;;9.18;7.07;;;9.60;93.40;;;;;;4920421;29;20023;-77
2021/12/13 18:18:32;;;;;;;12.02;7.90;;;9.60;93.30;;;;;;4932780;29;20111;-78
2021/12/13 18:21:05;;;;;;;9.88;6.90;;;9.70;93.40;;;;;;4926097;29;20028;-84
2021/12/13 18:23:41;;;;;;;10.65;7.30;;;9.60;93.20;;;;;;4903561;29;20024;-78
2021/12/13 18:26:21;;;;;;;11.88;8.60;;;9.60;93.30;;;;;;4920778;29;20415;-78
2021/12/13 18:28:51;;;;;;;12.23;8.15;;;9.60;93.60;;;;;;4920610;29;20491;-76
2021/12/13 18:31:22;;;;;;;13.23;8.10;;;9.60;93.60;;;;;;4919956;29;20036;-77
2021/12/13 18:33:50;;;;;;;12.32;8.52;;;9.60;93.60;;;;;;4937730;29;20027;-78
2021/12/13 18:36:37;;;;;;;12.15;8.60;;;9.60;93.60;;;;;;4920777;29;20028;-78
2021/12/13 18:39:06;;;;;;;11.23;8.02;;;9.60;93.60;;;;;;4937405;29;20495;-77
2021/12/13 18:41:37;;;;;;;10.85;7.97;;;9.60;93.50;;;;;;4936771;29;20039;-77
2021/12/13 18:44:13;;;;;;;11.43;8.32;;;9.60;93.50;;;;;;4906084;29;20063;-76
2021/12/13 18:47:05;;;;;;;13.13;8.75;;;9.60;93.40;;;;;;4917939;29;20027;-77
2021/12/13 18:49:33;;;;;;;11.93;8.20;;;9.60;93.40;;;;;;4892756;29;20066;-77
2021/12/13 18:52:20;;;;;;;12.05;8.30;;;9.60;93.40;;;;;;4900778;29;20087;-77
2021/12/13 18:54:45;;;;;;;10.38;8.05;;;9.60;93.40;;;;;;4917226;29;20064;-76
2021/12/13 18:57:24;;;;;;;15.35;8.20;;;9.60;93.40;;;;;;4917727;29;20024;-77
2021/12/13 19:00:10;;;;;;;12.77;8.35;;;9.60;93.40;;;;;;4900379;29;20055;-75
2021/12/13 19:02:47;;;;;;;12.38;8.63;;;9.60;93.40;;;;;;4910576;23;20064;-78
2021/12/13 19:05:29;;;;;;;11.10;8.52;;;9.60;93.40;;;;;;4865734;29;20117;-78
2021/12/13 19:08:01;;;;;;;11.00;8.25;;;9.60;93.50;;;;;;4864796;29;20156;-78
2021/12/13 19:10:44;;;;;;;10.70;8.10;;;9.60;93.40;;;;;;4864554;29;20054;-77
2021/12/13 19:13:48;;;;;;;11.30;8.27;;;9.70;93.50;;;;;;4866928;29;20104;-78
2021/12/13 19:16:35;;;;;;;11.38;8.43;;;9.60;93.30;;;;;;4799242;29;20096;-79
2021/12/13 19:19:09;;;;;;;12.10;8.45;;;9.60;93.30;;;;;;4867341;29;20498;-79